createdAt,value
2019-05-14T00:03:46.784Z,97976.65
2019-05-14T00:08:41.969Z,97958.83
2019-05-14T00:13:36.896Z,97964.93
2019-05-14T00:18:31.780Z,97954.31
2019-05-14T00:23:26.336Z,97952.63
2019-05-14T00:28:21.238Z,97941.91
2019-05-14T00:33:16.074Z,97941.02
2019-05-14T00:38:11.880Z,97948.11
2019-05-14T00:43:06.597Z,97931.23
2019-05-14T00:48:01.618Z,97944.56
2019-05-14T00:52:56.620Z,97918.64
2019-05-14T00:57:52.127Z,97916.41
2019-05-14T01:02:46.864Z,97912.58
2019-05-14T01:07:42.375Z,97911.21
2019-05-14T01:12:37.091Z,97930.94
2019-05-14T01:17:31.700Z,97921.09
2019-05-14T01:22:26.262Z,97931.03
2019-05-14T01:27:21.244Z,97934.69
2019-05-14T01:32:15.847Z,97923.78
2019-05-14T01:37:11.772Z,97921.06
2019-05-14T01:42:06.811Z,97917.20
2019-05-14T01:47:01.970Z,97911.21
2019-05-14T01:51:56.903Z,97906.25
2019-05-14T01:56:51.649Z,97907.93
2019-05-14T02:01:46.312Z,97897.98
2019-05-14T02:06:41.484Z,97904.28
2019-05-14T02:11:36.330Z,97897.85
2019-05-14T02:16:31.518Z,97890.55
2019-05-14T02:21:26.309Z,97891.59
2019-05-14T02:26:22.041Z,97909.15
2019-05-14T02:31:20.077Z,97888.91
2019-05-14T02:36:13.184Z,97877.96
2019-05-14T02:41:09.899Z,97882.27
2019-05-14T02:46:12.007Z,97872.38
2019-05-14T02:51:00.602Z,97852.63
2019-05-14T02:55:55.176Z,97846.63
2019-05-14T03:00:49.861Z,97848.27
2019-05-14T03:05:44.445Z,97842.05
2019-05-14T03:10:40.186Z,97845.89
2019-05-14T03:15:35.306Z,97839.69
2019-05-14T03:20:29.881Z,97833.89
2019-05-14T03:25:24.552Z,97839.35
2019-05-14T03:30:22.824Z,97834.45
2019-05-14T03:35:16.016Z,97844.11
2019-05-14T03:40:10.798Z,97837.13
2019-05-14T03:45:08.438Z,97836.62
2019-05-14T03:50:02.502Z,97844.03
2019-05-14T03:55:01.330Z,97844.08
2019-05-14T03:59:53.538Z,97830.02
2019-05-14T04:04:50.084Z,97831.78
2019-05-14T04:09:49.307Z,97857.35
2019-05-14T04:14:50.011Z,97842.05
2019-05-14T04:19:49.254Z,97831.97
2019-05-14T04:24:45.635Z,97842.03
2019-05-14T04:29:42.420Z,97835.65
2019-05-14T04:34:39.829Z,97837.66
2019-05-14T04:39:33.980Z,97830.34
2019-05-14T04:44:29.684Z,97838.59
2019-05-14T04:49:24.939Z,97836.63
2019-05-14T04:54:19.795Z,97836.31
2019-05-14T04:59:14.439Z,97838.40
2019-05-14T05:04:09.692Z,97831.13
2019-05-14T05:09:09.153Z,97840.80
2019-05-14T05:14:02.809Z,97837.31
2019-05-14T05:18:59.461Z,97837.80
2019-05-14T05:23:53.713Z,97842.77
2019-05-14T05:29:02.928Z,97837.23
2019-05-14T05:33:44.642Z,97830.45
2019-05-14T05:38:39.757Z,97830.26
2019-05-14T05:43:34.641Z,97842.75
2019-05-14T05:48:29.297Z,97844.41
2019-05-14T05:53:24.411Z,97838.88
2019-05-14T05:58:20.884Z,97839.42
2019-05-14T06:03:21.043Z,97844.00
2019-05-14T06:08:15.231Z,97840.98
2019-05-14T06:13:09.835Z,97841.77
2019-05-14T06:18:15.052Z,97841.50
2019-05-14T06:23:02.267Z,97823.60
2019-05-14T06:27:58.989Z,97827.91
2019-05-14T06:32:53.372Z,97814.34
2019-05-14T06:37:49.314Z,97825.12
2019-05-14T06:42:43.913Z,97823.17
2019-05-14T06:47:38.585Z,97831.78
2019-05-14T06:52:38.396Z,97820.55
2019-05-14T06:57:33.479Z,97812.72
2019-05-14T07:02:28.519Z,97819.03
2019-05-14T07:07:23.545Z,97830.35
2019-05-14T07:12:19.113Z,97826.83
2019-05-14T07:17:14.275Z,97824.15
2019-05-14T07:22:09.203Z,97819.38
2019-05-14T07:27:03.770Z,97812.79
2019-05-14T07:31:58.942Z,97801.50
2019-05-14T07:36:53.730Z,97794.22
2019-05-14T07:41:53.292Z,97780.52
2019-05-14T07:46:53.272Z,97800.48
2019-05-14T07:51:51.917Z,97808.45
2019-05-14T07:56:50.891Z,97812.99
2019-05-14T08:01:43.058Z,97806.00
2019-05-14T08:06:39.397Z,97794.20
2019-05-14T08:11:34.275Z,97823.00
2019-05-14T08:16:29.224Z,97798.23
2019-05-14T08:21:24.904Z,97792.73
2019-05-14T08:26:19.551Z,97778.20
2019-05-14T08:31:14.223Z,97765.66
2019-05-14T08:36:09.129Z,97755.64
2019-05-14T08:41:03.806Z,97754.09
2019-05-14T08:45:58.936Z,97755.66
2019-05-14T08:50:59.146Z,97769.41
2019-05-14T08:55:54.251Z,97772.68
2019-05-14T09:00:48.980Z,97770.73
2019-05-14T09:05:43.621Z,97752.22
2019-05-14T09:10:40.251Z,97763.47
2019-05-14T09:15:34.718Z,97758.13
2019-05-14T09:20:29.661Z,97751.97
2019-05-14T09:25:25.053Z,97769.06
2019-05-14T09:30:22.166Z,97767.75
2019-05-14T09:35:18.884Z,97751.27
2019-05-14T09:40:13.500Z,97747.27
2019-05-14T09:45:11.070Z,97741.17
2019-05-14T09:50:16.323Z,97762.19
2019-05-14T09:55:04.327Z,97739.11
2019-05-14T09:59:59.043Z,97744.63
2019-05-14T10:04:53.634Z,97750.61
2019-05-14T10:09:49.256Z,97729.14
2019-05-14T10:14:44.147Z,97727.50
2019-05-14T10:19:39.465Z,97724.10
2019-05-14T10:24:34.318Z,97749.14
2019-05-14T10:29:29.191Z,97731.59
2019-05-14T10:34:25.701Z,97722.78
2019-05-14T10:39:20.648Z,97734.78
2019-05-14T10:44:15.420Z,97725.05
2019-05-14T10:49:23.506Z,97733.71
2019-05-14T10:54:22.356Z,97714.57
2019-05-14T10:59:11.383Z,97722.95
2019-05-14T11:04:06.001Z,97699.22
2019-05-14T11:09:00.627Z,97728.34
2019-05-14T11:13:55.547Z,97714.22
2019-05-14T11:18:51.128Z,97697.39
2019-05-14T11:23:51.054Z,97693.12
2019-05-14T11:28:49.128Z,97687.62
2019-05-14T11:33:43.827Z,97697.95
2019-05-14T11:38:45.072Z,97679.16
2019-05-14T11:43:40.155Z,97675.33
2019-05-14T11:48:34.867Z,97673.98
2019-05-14T11:53:29.750Z,97672.45
2019-05-14T11:58:24.378Z,97669.61
2019-05-14T12:03:19.885Z,97664.05
2019-05-14T12:08:14.660Z,97666.27
2019-05-14T12:13:09.353Z,97661.58
2019-05-14T12:18:03.927Z,97658.70
2019-05-14T12:22:59.326Z,97661.93
2019-05-14T12:27:53.998Z,97646.20
2019-05-14T12:32:50.041Z,97664.36
2019-05-14T12:37:47.582Z,97647.95
2019-05-14T12:42:45.793Z,97654.51
2019-05-14T12:47:40.713Z,97637.70
2019-05-14T12:52:35.551Z,97629.69
2019-05-14T12:57:30.244Z,97638.56
2019-05-14T13:02:24.893Z,97634.12
2019-05-14T13:07:25.578Z,97635.36
2019-05-14T13:12:21.538Z,97626.19
2019-05-14T13:17:18.524Z,97635.31
2019-05-14T13:22:15.069Z,97634.77
2019-05-14T13:27:09.665Z,97616.86
2019-05-14T13:32:04.591Z,97622.11
2019-05-14T13:36:59.817Z,97619.77
2019-05-14T13:41:54.510Z,97623.09
2019-05-14T13:46:49.471Z,97618.66
2019-05-14T13:51:44.068Z,97619.27
2019-05-14T13:56:39.091Z,97595.48
2019-05-14T14:01:37.264Z,97588.20
2019-05-14T14:06:32.719Z,97601.55
2019-05-14T14:11:28.627Z,97584.91
2019-05-14T14:16:23.925Z,97573.00
2019-05-14T14:21:19.780Z,97566.16
2019-05-14T14:26:18.228Z,97552.48
2019-05-14T14:31:12.601Z,97558.52
2019-05-14T14:36:07.172Z,97553.34
2019-05-14T14:41:01.775Z,97554.70
2019-05-14T14:45:59.206Z,97555.48
2019-05-14T14:50:58.622Z,97538.91
2019-05-14T14:55:53.080Z,97540.33
2019-05-14T15:00:48.777Z,97535.25
2019-05-14T15:05:43.780Z,97541.91
2019-05-14T15:10:39.539Z,97544.38
2019-05-14T15:15:34.498Z,97543.84
2019-05-14T15:20:29.364Z,97539.20
2019-05-14T15:25:25.879Z,97548.09
2019-05-14T15:30:20.755Z,97532.34
2019-05-14T15:35:15.785Z,97532.94
2019-05-14T15:40:10.716Z,97529.33
2019-05-14T15:45:05.785Z,97519.31
2019-05-14T15:50:00.379Z,97512.83
2019-05-14T15:54:54.965Z,97513.89
2019-05-14T15:59:49.570Z,97506.29
2019-05-14T16:04:44.158Z,97505.83
2019-05-14T16:09:39.665Z,97512.05
2019-05-14T16:14:34.614Z,97503.23
2019-05-14T16:19:29.201Z,97503.83
2019-05-14T16:24:23.776Z,97492.48
2019-05-14T16:29:19.212Z,97497.21
2019-05-14T16:34:15.064Z,97500.24
2019-05-14T16:39:09.880Z,97491.38
2019-05-14T16:44:05.207Z,97490.86
2019-05-14T16:48:59.888Z,97481.28
2019-05-14T16:53:54.474Z,97480.82
2019-05-14T16:58:49.071Z,97476.80
2019-05-14T17:03:43.663Z,97477.13
2019-05-14T17:08:39.414Z,97472.92
2019-05-14T17:13:34.232Z,97467.64
2019-05-14T17:18:29.069Z,97472.09
2019-05-14T17:23:23.664Z,97470.65
2019-05-14T17:28:18.241Z,97476.14
2019-05-14T17:33:12.833Z,97471.01
2019-05-14T17:38:09.202Z,97471.17
2019-05-14T17:43:03.749Z,97464.78
2019-05-14T17:47:58.571Z,97468.27
2019-05-14T17:52:56.148Z,97469.92
2019-05-14T17:57:57.414Z,97464.45
2019-05-14T18:02:48.422Z,97473.06
2019-05-14T18:07:42.461Z,97463.86
2019-05-14T18:12:39.647Z,97474.91
2019-05-14T18:17:33.442Z,97476.26
2019-05-14T18:22:28.644Z,97475.91
2019-05-14T18:27:23.690Z,97477.55
2019-05-14T18:32:19.044Z,97481.73
2019-05-14T18:37:14.076Z,97495.13
2019-05-14T18:42:08.759Z,97494.59
2019-05-14T18:47:03.422Z,97495.73
2019-05-14T18:51:59.274Z,97501.77
2019-05-14T18:56:54.204Z,97504.18
2019-05-14T19:01:50.035Z,97508.13
2019-05-14T19:06:45.140Z,97517.03
2019-05-14T19:11:39.750Z,97515.90
2019-05-14T19:16:34.994Z,97520.97
2019-05-14T19:21:29.603Z,97525.03
2019-05-14T19:26:33.371Z,97516.59
2019-05-14T19:31:20.519Z,97517.10
2019-05-14T19:36:15.120Z,97517.50
2019-05-14T19:41:09.869Z,97517.34
2019-05-14T19:46:04.597Z,97517.84
2019-05-14T19:50:59.225Z,97517.05
2019-05-14T19:55:53.821Z,97522.12
2019-05-14T20:00:48.862Z,97526.34
2019-05-14T20:05:43.785Z,97530.08
2019-05-14T20:10:38.936Z,97531.78
2019-05-14T20:15:33.861Z,97535.20
2019-05-14T20:20:28.951Z,97535.12
2019-05-14T20:25:23.880Z,97528.00
2019-05-14T20:30:18.923Z,97523.66
2019-05-14T20:35:28.324Z,97525.09
2019-05-14T20:40:11.574Z,97518.02
2019-05-14T20:45:10.762Z,97522.55
2019-05-14T20:50:08.950Z,97521.30
2019-05-14T20:55:05.789Z,97521.38
2019-05-14T21:00:00.373Z,97521.64
2019-05-14T21:04:55.946Z,97522.12
2019-05-14T21:09:51.275Z,97520.91
2019-05-14T21:14:48.867Z,97525.03
2019-05-14T21:19:42.204Z,97525.78
2019-05-14T21:24:39.210Z,97525.87
2019-05-14T21:29:33.195Z,97529.64
2019-05-14T21:34:28.236Z,97531.14
2019-05-14T21:39:23.121Z,97528.35
2019-05-14T21:44:18.852Z,97525.20
2019-05-14T21:49:13.553Z,97528.53
2019-05-14T21:54:09.475Z,97519.78
2019-05-14T21:59:04.444Z,97525.46
2019-05-14T22:03:59.362Z,97521.11
2019-05-14T22:08:54.264Z,97522.88
2019-05-14T22:13:49.590Z,97520.03
2019-05-14T22:18:44.498Z,97527.01
2019-05-14T22:23:39.094Z,97532.00
2019-05-14T22:28:33.687Z,97524.48
2019-05-14T22:33:28.512Z,97530.59
2019-05-14T22:38:23.327Z,97520.97
2019-05-14T22:43:18.270Z,97509.46
2019-05-14T22:48:13.176Z,97511.66
2019-05-14T22:53:09.346Z,97505.88
2019-05-14T22:58:04.214Z,97503.42
2019-05-14T23:02:58.800Z,97506.47
2019-05-14T23:07:53.383Z,97502.12
2019-05-14T23:12:48.829Z,97494.59
2019-05-14T23:17:43.822Z,97492.50
2019-05-14T23:22:39.311Z,97492.10
2019-05-14T23:27:33.962Z,97492.84
2019-05-14T23:32:28.677Z,97494.58
2019-05-14T23:37:23.433Z,97486.80
2019-05-14T23:42:18.643Z,97491.95
2019-05-14T23:47:13.504Z,97483.75
2019-05-14T23:52:08.076Z,97484.74
2019-05-14T23:57:02.682Z,97487.51
